Terminal Aerodrome Forecast
Issued by NWS

Home | Current Version | Previous Version | Text Only | Print | Product List | Glossary On
Versions: 1 2 3 4 5 6 7 8 9 10 11 12 13 14 15 16 17 18 19 20
000
FTUS46 KSEW 171500 AAB
TAFHQM
TAF AMD
KHQM 171519Z 1715/1812 20012KT 4SM -RA BR SCT008 BKN015 OVC050
      TEMPO 1715/1718 2SM RA BR BKN008 OVC015
     FM171800 18012G20KT 5SM -RA SCT006 BKN012 OVC020
     FM172100 25016G26KT P6SM -SHRA SCT015 BKN025 OVC040
     FM180200 25012KT P6SM SCT025 BKN040=

USA.gov is the U.S. government's official web portal to all federal, state and local government web resources and services.